Time;durP1;ratioP1;P1;durP2;ratioP2;P2;SDS_P1;SDS_P2;PMS_P1;PMS_P2;Temp;Humidity;BMP_temperature;BMP_pressure;BME280_temperature;BME280_humidity;BME280_pressure;Samples;Min_cycle;Max_cycle;Signal;HPM_P1;HPM_P2
2022/09/12 00:01:08;;;;;;;1.38;0.57;;;;;;;;;;5029843;28;20041;-69
2022/09/12 00:03:37;;;;;;;2.58;0.40;;;;;;;;;;5025980;28;20038;-68
2022/09/12 00:06:09;;;;;;;0.40;0.40;;;;;;;;;;5028123;28;20033;-69
2022/09/12 00:08:39;;;;;;;0.22;0.20;;;;;;;;;;5028702;28;20049;-72
2022/09/12 00:11:11;;;;;;;0.45;0.40;;;;;;;;;;5032941;28;20064;-70
2022/09/12 00:13:40;;;;;;;1.65;0.52;;;;;;;;;;5031492;28;20355;-69
2022/09/12 00:16:15;;;;;;;1.08;0.68;;;;;;;;;;5028880;28;20061;-71
2022/09/12 00:18:45;;;;;;;0.77;0.50;;;;;;;;;;5029918;28;20049;-69
2022/09/12 00:21:14;;;;;;;0.20;0.10;;;;;;;;;;5029026;28;20092;-71
2022/09/12 00:23:44;;;;;;;0.68;0.68;;;;;;;;;;5028800;28;20089;-70
2022/09/12 00:26:12;;;;;;;0.45;0.43;;;;;;;;;;5031245;28;20058;-73
2022/09/12 00:28:41;;;;;;;0.30;0.30;;;;;;;;;;5027033;28;20545;-69
2022/09/12 00:31:10;;;;;;;0.43;0.40;;;;;;;;;;5029332;28;20053;-70
2022/09/12 00:33:39;;;;;;;0.63;0.60;;;;;;;;;;5028783;28;20045;-69
2022/09/12 00:36:09;;;;;;;0.45;0.32;;;;;;;;;;5030714;28;20064;-71
2022/09/12 00:38:40;;;;;;;1.55;0.65;;;;;;;;;;5026497;28;20048;-69
2022/09/12 00:41:13;;;;;;;1.63;0.68;;;;;;;;;;5028996;28;20383;-69
2022/09/12 00:43:43;;;;;;;1.23;0.50;;;;;;;;;;5039603;28;20511;-70
2022/09/12 00:46:17;;;;;;;0.38;0.35;;;;;;;;;;5036069;28;20052;-69
2022/09/12 00:48:48;;;;;;;1.88;0.50;;;;;;;;;;5034548;28;20049;-69
2022/09/12 00:51:16;;;;;;;0.57;0.45;;;;;;;;;;5030048;28;20053;-69
2022/09/12 00:53:47;;;;;;;1.33;0.60;;;;;;;;;;5027731;28;20480;-70
2022/09/12 00:56:18;;;;;;;0.52;0.52;;;;;;;;;;5028909;28;20057;-73
2022/09/12 00:58:49;;;;;;;0.52;0.30;;;;;;;;;;5027419;28;20080;-69
2022/09/12 01:01:18;;;;;;;0.52;0.25;;;;;;;;;;5025446;28;20062;-68
2022/09/12 01:03:46;;;;;;;0.30;0.30;;;;;;;;;;5028309;28;20537;-69
2022/09/12 01:06:17;;;;;;;0.57;0.50;;;;;;;;;;5028893;28;20045;-69
2022/09/12 01:08:47;;;;;;;0.32;0.32;;;;;;;;;;5028284;28;20059;-68
2022/09/12 01:11:17;;;;;;;0.68;0.45;;;;;;;;;;5025635;28;20033;-69
2022/09/12 01:13:46;;;;;;;2.25;0.45;;;;;;;;;;5027954;28;20049;-68
2022/09/12 01:16:14;;;;;;;0.45;0.43;;;;;;;;;;5026053;28;20049;-69
2022/09/12 01:18:48;;;;;;;1.55;0.75;;;;;;;;;;5026082;28;20046;-69
2022/09/12 01:21:18;;;;;;;0.47;0.47;;;;;;;;;;5027636;28;20060;-69
2022/09/12 01:23:58;;;;;;;0.35;0.20;;;;;;;;;;5027409;28;20050;-68
2022/09/12 01:26:43;;;;;;;0.43;0.35;;;;;;;;;;5028348;28;20104;-68
2022/09/12 01:29:19;;;;;;;1.15;0.65;;;;;;;;;;5020616;28;20042;-68
2022/09/12 01:31:54;;;;;;;0.28;0.28;;;;;;;;;;5026824;28;20062;-69
2022/09/12 01:34:26;;;;;;;1.75;0.93;;;;;;;;;;5026998;28;20050;-68
2022/09/12 01:36:59;;;;;;;0.32;0.30;;;;;;;;;;5036377;28;20049;-68
2022/09/12 01:39:31;;;;;;;0.25;0.25;;;;;;;;;;5035742;28;20053;-70
2022/09/12 01:42:05;;;;;;;1.05;0.55;;;;;;;;;;5027493;28;20046;-68
2022/09/12 01:44:37;;;;;;;0.30;0.30;;;;;;;;;;5027727;28;20041;-69
2022/09/12 01:47:10;;;;;;;0.88;0.77;;;;;;;;;;5046873;28;20044;-68
2022/09/12 01:49:41;;;;;;;0.47;0.35;;;;;;;;;;5050690;28;20431;-70
2022/09/12 01:52:14;;;;;;;0.20;0.20;;;;;;;;;;5046384;28;20052;-69
2022/09/12 01:54:45;;;;;;;0.90;0.32;;;;;;;;;;5041425;28;20045;-68
2022/09/12 01:57:16;;;;;;;0.65;0.30;;;;;;;;;;5026820;28;20049;-72
2022/09/12 01:59:48;;;;;;;0.70;0.50;;;;;;;;;;5035310;28;20063;-68
2022/09/12 02:02:20;;;;;;;1.02;0.50;;;;;;;;;;5024984;28;20049;-71
2022/09/12 02:04:52;;;;;;;0.85;0.43;;;;;;;;;;5027115;28;20057;-69
2022/09/12 02:07:21;;;;;;;0.25;0.25;;;;;;;;;;5026682;28;20060;-70
2022/09/12 02:09:51;;;;;;;0.70;0.38;;;;;;;;;;5028176;28;20076;-68
2022/09/12 02:12:22;;;;;;;0.47;0.45;;;;;;;;;;5028862;28;20056;-70
2022/09/12 02:14:54;;;;;;;0.85;0.70;;;;;;;;;;5027238;28;20048;-68
2022/09/12 02:17:25;;;;;;;0.90;0.50;;;;;;;;;;5047663;28;20045;-68
2022/09/12 02:19:56;;;;;;;0.32;0.28;;;;;;;;;;5045472;28;20053;-72
2022/09/12 02:22:26;;;;;;;0.60;0.20;;;;;;;;;;5050221;28;20049;-69
2022/09/12 02:24:55;;;;;;;0.22;0.22;;;;;;;;;;5038292;28;20049;-69
2022/09/12 02:27:25;;;;;;;0.35;0.30;;;;;;;;;;5029376;28;20056;-69
2022/09/12 02:29:54;;;;;;;0.88;0.25;;;;;;;;;;5020086;28;20434;-69
2022/09/12 02:32:28;;;;;;;1.80;0.68;;;;;;;;;;5026458;28;20052;-68
2022/09/12 02:34:58;;;;;;;0.15;0.15;;;;;;;;;;5026625;28;20053;-70
2022/09/12 02:37:33;;;;;;;0.30;0.30;;;;;;;;;;5030217;28;20065;-70
2022/09/12 02:40:02;;;;;;;0.43;0.35;;;;;;;;;;5025675;28;20044;-68
2022/09/12 02:42:30;;;;;;;0.30;0.30;;;;;;;;;;5029313;28;20074;-68
2022/09/12 02:44:59;;;;;;;0.30;0.30;;;;;;;;;;5033690;28;20398;-69
2022/09/12 02:47:32;;;;;;;0.22;0.22;;;;;;;;;;5027693;28;20053;-72
2022/09/12 02:50:00;;;;;;;1.10;0.52;;;;;;;;;;5027189;28;20041;-70
2022/09/12 02:52:29;;;;;;;0.38;0.38;;;;;;;;;;5029162;28;20061;-70
2022/09/12 02:54:58;;;;;;;0.52;0.52;;;;;;;;;;5031163;28;20045;-68
2022/09/12 02:57:27;;;;;;;0.28;0.25;;;;;;;;;;5028712;28;20057;-69
2022/09/12 02:59:57;;;;;;;0.60;0.55;;;;;;;;;;5026214;28;20049;-69
2022/09/12 03:02:30;;;;;;;0.32;0.28;;;;;;;;;;5023940;28;20440;-69
2022/09/12 03:05:13;;;;;;;0.95;0.57;;;;;;;;;;5025940;28;20053;-73
2022/09/12 03:07:49;;;;;;;0.47;0.40;;;;;;;;;;5028100;28;20049;-69
2022/09/12 03:10:23;;;;;;;0.30;0.30;;;;;;;;;;5027401;28;20046;-70
2022/09/12 03:12:58;;;;;;;0.38;0.38;;;;;;;;;;5023010;28;20053;-69
2022/09/12 03:15:30;;;;;;;0.80;0.45;;;;;;;;;;5025793;28;20053;-68
2022/09/12 03:18:18;;;;;;;0.65;0.50;;;;;;;;;;5025588;28;20061;-69
2022/09/12 03:20:50;;;;;;;0.65;0.52;;;;;;;;;;5027931;28;20057;-70
2022/09/12 03:23:24;;;;;;;1.27;0.57;;;;;;;;;;5026075;28;20056;-73
2022/09/12 03:25:55;;;;;;;0.40;0.40;;;;;;;;;;5028669;28;20041;-70
2022/09/12 03:28:23;;;;;;;0.43;0.43;;;;;;;;;;5027799;28;20296;-68
2022/09/12 03:30:54;;;;;;;0.80;0.50;;;;;;;;;;5026945;28;20049;-72
2022/09/12 03:33:25;;;;;;;0.68;0.68;;;;;;;;;;5022714;28;20096;-68
2022/09/12 03:35:54;;;;;;;0.20;0.20;;;;;;;;;;5034132;28;20052;-71
2022/09/12 03:38:22;;;;;;;0.80;0.35;;;;;;;;;;5047758;28;20067;-68
2022/09/12 03:40:50;;;;;;;0.50;0.45;;;;;;;;;;5045622;28;20045;-68
2022/09/12 03:43:22;;;;;;;0.50;0.30;;;;;;;;;;5046654;28;20045;-68
2022/09/12 03:45:52;;;;;;;0.65;0.47;;;;;;;;;;5040902;28;20056;-68
2022/09/12 03:48:20;;;;;;;0.57;0.30;;;;;;;;;;5045574;28;20061;-69
2022/09/12 03:50:50;;;;;;;1.33;0.55;;;;;;;;;;5039693;28;20059;-69
2022/09/12 03:53:18;;;;;;;0.38;0.32;;;;;;;;;;5051212;28;20046;-69
2022/09/12 03:55:46;;;;;;;0.43;0.40;;;;;;;;;;5046246;28;20052;-70
2022/09/12 03:58:15;;;;;;;0.52;0.50;;;;;;;;;;5050560;28;20416;-70
2022/09/12 04:00:43;;;;;;;1.02;0.50;;;;;;;;;;5046671;28;20511;-68
2022/09/12 04:03:12;;;;;;;0.63;0.52;;;;;;;;;;5049532;28;20059;-72
2022/09/12 04:05:40;;;;;;;0.50;0.40;;;;;;;;;;5050920;28;20064;-68
2022/09/12 04:08:10;;;;;;;1.75;0.63;;;;;;;;;;5050006;28;20504;-69
2022/09/12 04:10:38;;;;;;;0.80;0.40;;;;;;;;;;5049689;28;20471;-70
2022/09/12 04:13:06;;;;;;;0.30;0.30;;;;;;;;;;5044404;28;20265;-68
2022/09/12 04:15:35;;;;;;;0.73;0.47;;;;;;;;;;5039254;28;20045;-67
2022/09/12 04:18:03;;;;;;;0.20;0.20;;;;;;;;;;5029100;28;20386;-67
2022/09/12 04:20:33;;;;;;;0.43;0.30;;;;;;;;;;5026979;28;20405;-68
2022/09/12 04:23:01;;;;;;;1.20;0.45;;;;;;;;;;5029720;28;20041;-68
2022/09/12 04:25:31;;;;;;;0.65;0.57;;;;;;;;;;5028767;28;20332;-68
2022/09/12 04:27:59;;;;;;;0.20;0.20;;;;;;;;;;5029042;28;20057;-69
2022/09/12 04:30:28;;;;;;;0.52;0.52;;;;;;;;;;5023798;28;20061;-73
2022/09/12 04:32:56;;;;;;;0.32;0.30;;;;;;;;;;5028847;28;20497;-70
2022/09/12 04:35:24;;;;;;;0.85;0.35;;;;;;;;;;5027997;28;20107;-68
2022/09/12 04:37:53;;;;;;;0.25;0.25;;;;;;;;;;5028113;28;20057;-68
2022/09/12 04:40:21;;;;;;;0.63;0.40;;;;;;;;;;5024399;28;20041;-68
2022/09/12 04:42:51;;;;;;;1.33;0.38;;;;;;;;;;5025264;28;20046;-74
2022/09/12 04:45:19;;;;;;;0.35;0.35;;;;;;;;;;5025705;28;20056;-68
2022/09/12 04:47:47;;;;;;;0.40;0.30;;;;;;;;;;5024534;28;20072;-69
2022/09/12 04:50:16;;;;;;;0.20;0.20;;;;;;;;;;5028367;28;20049;-70
2022/09/12 04:52:44;;;;;;;0.20;0.20;;;;;;;;;;5029621;28;20068;-74
2022/09/12 04:55:12;;;;;;;0.75;0.50;;;;;;;;;;5025432;28;20053;-69
2022/09/12 04:57:40;;;;;;;1.48;0.68;;;;;;;;;;5031121;28;20057;-70
2022/09/12 05:00:13;;;;;;;0.95;0.50;;;;;;;;;;5027158;28;20053;-68
2022/09/12 05:02:41;;;;;;;0.15;0.15;;;;;;;;;;5026051;28;20445;-68
2022/09/12 05:05:10;;;;;;;0.77;0.43;;;;;;;;;;5023119;28;20348;-73
2022/09/12 05:07:39;;;;;;;0.43;0.30;;;;;;;;;;5031198;28;20045;-68
2022/09/12 05:10:07;;;;;;;0.30;0.22;;;;;;;;;;5030766;28;20402;-68
2022/09/12 05:12:36;;;;;;;0.50;0.45;;;;;;;;;;5028155;28;20060;-69
2022/09/12 05:15:04;;;;;;;0.30;0.30;;;;;;;;;;5025859;28;20037;-68
2022/09/12 05:17:34;;;;;;;3.33;0.35;;;;;;;;;;5028483;28;20053;-68
2022/09/12 05:20:02;;;;;;;0.30;0.30;;;;;;;;;;5025975;28;20049;-68
2022/09/12 05:22:31;;;;;;;0.82;0.50;;;;;;;;;;5029615;28;20053;-68
2022/09/12 05:24:59;;;;;;;0.63;0.52;;;;;;;;;;5026715;28;20057;-70
2022/09/12 05:27:27;;;;;;;0.52;0.38;;;;;;;;;;5029981;28;20052;-69
2022/09/12 05:29:55;;;;;;;0.20;0.20;;;;;;;;;;5027382;28;20052;-68
2022/09/12 05:32:24;;;;;;;2.80;0.30;;;;;;;;;;5030941;28;20052;-68
2022/09/12 05:34:53;;;;;;;0.30;0.30;;;;;;;;;;5031063;28;20050;-70
2022/09/12 05:37:22;;;;;;;0.93;0.40;;;;;;;;;;5033732;28;20061;-69
2022/09/12 05:39:51;;;;;;;0.45;0.20;;;;;;;;;;5025155;28;20049;-70
2022/09/12 05:42:19;;;;;;;0.40;0.32;;;;;;;;;;5027353;28;20512;-72
2022/09/12 05:44:47;;;;;;;1.33;0.50;;;;;;;;;;5016584;28;20169;-69
2022/09/12 05:47:16;;;;;;;0.47;0.40;;;;;;;;;;5026082;28;20482;-73
2022/09/12 05:49:46;;;;;;;1.75;0.75;;;;;;;;;;5024653;28;20052;-70
2022/09/12 05:52:16;;;;;;;1.10;0.50;;;;;;;;;;5027631;28;20049;-70
2022/09/12 05:54:46;;;;;;;0.63;0.63;;;;;;;;;;5024055;28;20052;-69
2022/09/12 05:57:14;;;;;;;0.30;0.30;;;;;;;;;;5026778;28;20540;-68
2022/09/12 05:59:42;;;;;;;0.38;0.28;;;;;;;;;;5027307;28;20076;-68
2022/09/12 06:02:11;;;;;;;0.52;0.52;;;;;;;;;;5024403;28;20063;-68
2022/09/12 06:04:41;;;;;;;0.73;0.60;;;;;;;;;;5027036;28;20045;-69
2022/09/12 06:07:09;;;;;;;1.35;0.40;;;;;;;;;;5028314;28;20045;-69
2022/09/12 06:09:39;;;;;;;0.30;0.22;;;;;;;;;;5026537;28;20049;-69
2022/09/12 06:12:08;;;;;;;0.93;0.68;;;;;;;;;;5026049;28;20465;-69
2022/09/12 06:14:37;;;;;;;7.03;0.90;;;;;;;;;;5024799;28;20482;-71
2022/09/12 06:17:06;;;;;;;2.10;0.80;;;;;;;;;;5028416;28;20049;-68
2022/09/12 06:19:35;;;;;;;0.30;0.30;;;;;;;;;;5023671;28;20419;-68
2022/09/12 06:22:03;;;;;;;0.35;0.35;;;;;;;;;;5029262;28;20077;-73
2022/09/12 06:24:32;;;;;;;0.35;0.30;;;;;;;;;;5023849;28;20061;-68
2022/09/12 06:27:02;;;;;;;0.45;0.40;;;;;;;;;;5026218;28;20049;-72
2022/09/12 06:29:31;;;;;;;0.50;0.30;;;;;;;;;;5023107;28;20045;-74
2022/09/12 06:31:59;;;;;;;0.68;0.40;;;;;;;;;;5026628;28;20139;-68
2022/09/12 06:34:29;;;;;;;0.30;0.20;;;;;;;;;;5020101;28;20123;-72
2022/09/12 06:36:57;;;;;;;0.63;0.30;;;;;;;;;;5026227;28;20454;-74
2022/09/12 06:39:26;;;;;;;1.75;0.30;;;;;;;;;;5024977;28;20053;-69
2022/09/12 06:41:54;;;;;;;0.20;0.20;;;;;;;;;;5023602;28;20403;-69
2022/09/12 06:44:24;;;;;;;0.47;0.45;;;;;;;;;;5023090;28;20675;-69
2022/09/12 06:46:53;;;;;;;2.20;0.68;;;;;;;;;;5021152;28;20433;-72
2022/09/12 06:49:21;;;;;;;0.82;0.57;;;;;;;;;;5022323;28;20103;-68
2022/09/12 06:51:50;;;;;;;5.18;0.68;;;;;;;;;;5025675;28;20492;-68
2022/09/12 06:54:18;;;;;;;1.80;0.82;;;;;;;;;;5025915;28;20076;-72
2022/09/12 06:56:47;;;;;;;2.53;0.93;;;;;;;;;;5043889;28;20069;-69
2022/09/12 06:59:15;;;;;;;1.42;0.52;;;;;;;;;;5048889;28;20056;-68
2022/09/12 07:01:45;;;;;;;1.77;0.68;;;;;;;;;;5045225;28;20051;-69
2022/09/12 07:04:13;;;;;;;1.55;0.55;;;;;;;;;;5044734;28;20143;-71
2022/09/12 07:06:43;;;;;;;1.42;0.63;;;;;;;;;;5034528;28;20061;-72
2022/09/12 07:09:12;;;;;;;5.97;1.17;;;;;;;;;;5023604;28;20049;-69
2022/09/12 07:11:41;;;;;;;0.68;0.40;;;;;;;;;;5011774;28;20053;-74
2022/09/12 07:14:12;;;;;;;0.57;0.50;;;;;;;;;;5016423;28;20809;-69
2022/09/12 07:16:41;;;;;;;0.73;0.40;;;;;;;;;;5025359;28;20050;-69
2022/09/12 07:19:11;;;;;;;0.73;0.40;;;;;;;;;;5025943;28;20107;-73
2022/09/12 07:21:40;;;;;;;0.60;0.40;;;;;;;;;;5027638;28;20481;-71
2022/09/12 07:24:09;;;;;;;0.70;0.50;;;;;;;;;;5027328;28;20421;-69
2022/09/12 07:26:39;;;;;;;1.10;0.47;;;;;;;;;;5023370;28;20451;-71
2022/09/12 07:29:09;;;;;;;0.85;0.63;;;;;;;;;;5020109;28;20574;-72
2022/09/12 07:31:59;;;;;;;0.98;0.80;;;;;;;;;;5027204;28;20049;-71
2022/09/12 07:34:29;;;;;;;2.35;0.60;;;;;;;;;;5025131;28;20778;-71
2022/09/12 07:36:58;;;;;;;0.40;0.40;;;;;;;;;;5023914;28;20060;-70
2022/09/12 07:39:26;;;;;;;0.90;0.50;;;;;;;;;;5026737;28;20382;-71
2022/09/12 07:41:56;;;;;;;1.20;0.77;;;;;;;;;;5028844;28;20291;-70
2022/09/12 07:44:25;;;;;;;0.60;0.40;;;;;;;;;;5024222;28;20128;-71
2022/09/12 07:46:54;;;;;;;0.50;0.32;;;;;;;;;;5021179;28;20548;-71
2022/09/12 07:49:22;;;;;;;0.93;0.55;;;;;;;;;;5025303;28;20053;-72
2022/09/12 07:51:52;;;;;;;1.02;0.52;;;;;;;;;;5026121;28;20136;-69
2022/09/12 07:54:21;;;;;;;0.32;0.30;;;;;;;;;;5027537;28;20068;-71
2022/09/12 07:56:49;;;;;;;0.65;0.30;;;;;;;;;;5023988;28;20256;-69
2022/09/12 07:59:18;;;;;;;8.63;0.50;;;;;;;;;;5021148;28;20420;-69
2022/09/12 08:02:07;;;;;;;0.88;0.70;;;;;;;;;;5022824;28;20049;-71
2022/09/12 08:04:35;;;;;;;0.60;0.47;;;;;;;;;;5020556;28;20052;-71
2022/09/12 08:07:06;;;;;;;0.65;0.45;;;;;;;;;;5026805;28;20058;-70
2022/09/12 08:09:34;;;;;;;1.23;0.85;;;;;;;;;;5022650;28;20041;-70
2022/09/12 08:12:03;;;;;;;2.85;0.52;;;;;;;;;;5027972;28;20056;-69
2022/09/12 08:14:32;;;;;;;2.47;0.32;;;;;;;;;;5024780;28;20540;-71
2022/09/12 08:17:00;;;;;;;3.33;0.93;;;;;;;;;;5026085;28;20051;-70
2022/09/12 08:19:29;;;;;;;0.52;0.45;;;;;;;;;;5021154;28;20408;-71
2022/09/12 08:21:57;;;;;;;1.73;0.63;;;;;;;;;;5025939;28;20053;-73
2022/09/12 08:24:27;;;;;;;1.10;0.65;;;;;;;;;;5020962;28;20053;-69
2022/09/12 08:26:55;;;;;;;0.75;0.57;;;;;;;;;;5034897;28;20493;-71
2022/09/12 08:29:24;;;;;;;0.82;0.68;;;;;;;;;;5030782;28;20054;-70
2022/09/12 08:31:52;;;;;;;1.38;0.60;;;;;;;;;;5029796;28;20073;-69
2022/09/12 08:34:25;;;;;;;0.80;0.60;;;;;;;;;;5018585;28;20041;-69
2022/09/12 08:36:54;;;;;;;0.82;0.68;;;;;;;;;;5019518;28;20053;-68
2022/09/12 08:39:23;;;;;;;0.30;0.30;;;;;;;;;;5026290;28;20072;-70
2022/09/12 08:41:59;;;;;;;0.55;0.38;;;;;;;;;;5022596;28;20049;-71
2022/09/12 08:44:32;;;;;;;0.75;0.47;;;;;;;;;;5027499;28;20045;-70
2022/09/12 08:47:22;;;;;;;0.90;0.43;;;;;;;;;;5043628;28;20046;-69
2022/09/12 08:49:54;;;;;;;0.60;0.45;;;;;;;;;;5021204;28;20640;-70
2022/09/12 08:52:26;;;;;;;0.88;0.60;;;;;;;;;;5018805;28;20049;-70
2022/09/12 08:54:55;;;;;;;1.85;0.65;;;;;;;;;;5025567;28;20038;-70
2022/09/12 08:57:25;;;;;;;1.15;0.52;;;;;;;;;;5027686;28;20240;-73
2022/09/12 08:59:54;;;;;;;1.00;0.50;;;;;;;;;;5029055;28;20053;-69
2022/09/12 09:02:33;;;;;;;1.42;0.40;;;;;;;;;;5026055;28;20049;-70
2022/09/12 09:05:06;;;;;;;1.83;0.73;;;;;;;;;;5024587;28;20464;-70
2022/09/12 09:07:42;;;;;;;0.68;0.68;;;;;;;;;;5025294;28;20049;-69
2022/09/12 09:10:16;;;;;;;1.65;0.65;;;;;;;;;;5024787;28;20055;-69
2022/09/12 09:12:51;;;;;;;0.90;0.70;;;;;;;;;;5029508;28;20456;-69
2022/09/12 09:15:41;;;;;;;0.63;0.22;;;;;;;;;;5030248;28;20057;-69
2022/09/12 09:18:12;;;;;;;0.35;0.35;;;;;;;;;;5022365;28;20416;-69
2022/09/12 09:20:45;;;;;;;0.85;0.50;;;;;;;;;;5018729;28;20246;-69
2022/09/12 09:23:16;;;;;;;1.98;1.02;;;;;;;;;;5029172;28;20509;-69
2022/09/12 09:25:49;;;;;;;0.80;0.47;;;;;;;;;;5027166;28;20566;-69
2022/09/12 09:28:21;;;;;;;0.40;0.40;;;;;;;;;;5028332;28;20049;-68
2022/09/12 09:30:50;;;;;;;0.60;0.40;;;;;;;;;;5012786;28;20054;-70
2022/09/12 09:33:22;;;;;;;1.15;0.57;;;;;;;;;;5024539;28;20077;-70
2022/09/12 09:35:56;;;;;;;0.70;0.45;;;;;;;;;;5028410;28;20056;-70
2022/09/12 09:38:27;;;;;;;0.47;0.47;;;;;;;;;;5027368;28;20051;-71
2022/09/12 09:41:10;;;;;;;0.80;0.52;;;;;;;;;;5023883;28;20107;-70
2022/09/12 09:43:40;;;;;;;1.35;0.85;;;;;;;;;;5016891;28;20245;-72
2022/09/12 09:46:10;;;;;;;0.70;0.50;;;;;;;;;;5026813;28;20061;-70
2022/09/12 09:48:42;;;;;;;0.82;0.40;;;;;;;;;;5025879;28;20133;-70
2022/09/12 09:51:11;;;;;;;0.70;0.40;;;;;;;;;;5020954;28;20486;-69
2022/09/12 09:53:41;;;;;;;0.55;0.50;;;;;;;;;;5021000;28;20052;-70
2022/09/12 09:56:12;;;;;;;0.88;0.40;;;;;;;;;;5022907;28;20128;-70
2022/09/12 09:58:42;;;;;;;1.05;0.50;;;;;;;;;;5025355;28;20160;-69
2022/09/12 10:01:16;;;;;;;0.43;0.25;;;;;;;;;;5026449;28;20088;-69
2022/09/12 10:03:54;;;;;;;1.00;0.70;;;;;;;;;;5031916;28;20045;-70
2022/09/12 10:06:33;;;;;;;1.02;0.40;;;;;;;;;;5023805;28;20069;-70
2022/09/12 10:09:18;;;;;;;0.65;0.40;;;;;;;;;;5026940;28;20041;-72
2022/09/12 10:11:46;;;;;;;1.48;0.60;;;;;;;;;;5026505;28;20049;-71
2022/09/12 10:14:36;;;;;;;1.38;0.50;;;;;;;;;;5034514;28;20478;-71
2022/09/12 10:17:23;;;;;;;1.25;0.50;;;;;;;;;;5036887;28;20053;-71
2022/09/12 10:19:52;;;;;;;0.90;0.52;;;;;;;;;;5026608;28;20073;-72
2022/09/12 10:22:39;;;;;;;0.57;0.40;;;;;;;;;;5026503;28;20162;-72
2022/09/12 10:25:11;;;;;;;1.35;0.60;;;;;;;;;;5030677;28;20120;-72
2022/09/12 10:27:42;;;;;;;0.40;0.40;;;;;;;;;;5047331;28;20321;-72
2022/09/12 10:30:17;;;;;;;1.48;0.70;;;;;;;;;;5047659;28;20045;-72
2022/09/12 10:32:49;;;;;;;0.75;0.55;;;;;;;;;;5044925;28;20468;-69
2022/09/12 10:35:18;;;;;;;1.55;0.60;;;;;;;;;;5043374;28;20041;-70
2022/09/12 10:37:52;;;;;;;1.30;0.47;;;;;;;;;;5039193;28;20040;-70
2022/09/12 10:40:23;;;;;;;0.77;0.60;;;;;;;;;;5038229;28;20166;-73
2022/09/12 10:42:53;;;;;;;1.02;0.60;;;;;;;;;;5043781;28;20385;-71
2022/09/12 10:45:23;;;;;;;0.60;0.50;;;;;;;;;;5035145;28;20517;-71
2022/09/12 10:47:54;;;;;;;1.70;1.00;;;;;;;;;;5024210;28;20390;-72
2022/09/12 10:50:25;;;;;;;2.88;0.57;;;;;;;;;;5018619;28;20048;-72
2022/09/12 10:52:54;;;;;;;2.60;0.45;;;;;;;;;;5021652;28;20140;-73
2022/09/12 10:55:29;;;;;;;0.63;0.40;;;;;;;;;;5021276;28;20562;-71
2022/09/12 10:58:05;;;;;;;0.55;0.50;;;;;;;;;;5032819;28;20119;-72
2022/09/12 11:00:38;;;;;;;0.98;0.52;;;;;;;;;;5028992;28;20054;-71
2022/09/12 11:03:16;;;;;;;0.45;0.45;;;;;;;;;;5024883;28;20056;-72
2022/09/12 11:05:56;;;;;;;0.50;0.40;;;;;;;;;;5023399;28;20631;-71
2022/09/12 11:08:33;;;;;;;0.60;0.50;;;;;;;;;;5033859;28;20485;-71
2022/09/12 11:11:06;;;;;;;1.23;0.70;;;;;;;;;;5026424;28;20041;-72
2022/09/12 11:13:46;;;;;;;1.13;0.73;;;;;;;;;;5031025;28;20038;-71
2022/09/12 11:16:21;;;;;;;0.90;0.63;;;;;;;;;;5019282;28;20054;-71
2022/09/12 11:19:02;;;;;;;0.68;0.50;;;;;;;;;;5030911;28;20077;-71
2022/09/12 11:21:38;;;;;;;3.40;0.60;;;;;;;;;;5031994;28;20112;-72
2022/09/12 11:24:22;;;;;;;0.73;0.57;;;;;;;;;;5030212;28;20061;-71
2022/09/12 11:26:55;;;;;;;1.38;0.70;;;;;;;;;;5027457;28;20050;-71
2022/09/12 11:29:30;;;;;;;1.10;0.55;;;;;;;;;;5027936;28;20046;-73
2022/09/12 11:32:14;;;;;;;0.90;0.60;;;;;;;;;;5028718;28;20420;-72
2022/09/12 11:34:52;;;;;;;0.40;0.38;;;;;;;;;;5029470;28;20378;-72
2022/09/12 11:37:34;;;;;;;0.82;0.68;;;;;;;;;;5031567;28;20143;-73
2022/09/12 11:40:07;;;;;;;1.23;0.60;;;;;;;;;;5034775;28;20106;-73
2022/09/12 11:42:37;;;;;;;0.82;0.60;;;;;;;;;;5030688;28;20468;-72
2022/09/12 11:45:13;;;;;;;0.90;0.70;;;;;;;;;;5032107;28;20072;-72
2022/09/12 11:47:42;;;;;;;0.80;0.40;;;;;;;;;;5025771;28;20332;-72
2022/09/12 11:50:16;;;;;;;0.52;0.52;;;;;;;;;;5026812;28;20047;-72
2022/09/12 11:52:45;;;;;;;0.93;0.50;;;;;;;;;;5024388;28;20046;-73
2022/09/12 11:55:17;;;;;;;0.50;0.50;;;;;;;;;;5027956;28;20052;-73
2022/09/12 11:57:46;;;;;;;0.88;0.50;;;;;;;;;;5020285;28;20041;-72
2022/09/12 12:00:17;;;;;;;0.40;0.40;;;;;;;;;;5028239;28;20045;-72
2022/09/12 12:02:51;;;;;;;1.42;0.50;;;;;;;;;;5022763;28;20456;-72
2022/09/12 12:05:25;;;;;;;1.08;0.55;;;;;;;;;;5030677;28;20077;-72
2022/09/12 12:07:55;;;;;;;2.72;0.57;;;;;;;;;;5047721;28;20128;-72
2022/09/12 12:10:33;;;;;;;0.68;0.47;;;;;;;;;;5046395;28;20075;-72
2022/09/12 12:13:02;;;;;;;0.93;0.52;;;;;;;;;;5037382;28;20558;-72
2022/09/12 12:15:31;;;;;;;0.43;0.43;;;;;;;;;;5040569;28;20049;-72
2022/09/12 12:18:01;;;;;;;0.50;0.50;;;;;;;;;;5025563;28;20044;-75
2022/09/12 12:20:31;;;;;;;0.70;0.50;;;;;;;;;;5028037;28;20042;-72
2022/09/12 12:23:00;;;;;;;0.77;0.50;;;;;;;;;;5027047;28;20055;-73
2022/09/12 12:25:42;;;;;;;0.47;0.43;;;;;;;;;;5027385;28;20532;-72
2022/09/12 12:28:11;;;;;;;0.43;0.43;;;;;;;;;;5049160;28;20503;-72
2022/09/12 12:31:00;;;;;;;0.47;0.40;;;;;;;;;;5044906;28;20056;-72
2022/09/12 12:33:48;;;;;;;0.57;0.57;;;;;;;;;;5042986;28;20481;-72
2022/09/12 12:36:32;;;;;;;0.50;0.50;;;;;;;;;;5030266;28;20448;-72
2022/09/12 12:39:21;;;;;;;1.42;0.60;;;;;;;;;;5022536;28;20045;-72
2022/09/12 12:41:49;;;;;;;0.82;0.45;;;;;;;;;;5025973;28;20124;-73
2022/09/12 12:44:36;;;;;;;0.45;0.30;;;;;;;;;;5026486;28;20144;-72
2022/09/12 12:47:09;;;;;;;0.40;0.40;;;;;;;;;;5030024;28;20089;-72
2022/09/12 12:49:38;;;;;;;0.60;0.40;;;;;;;;;;5027914;28;20049;-72
2022/09/12 12:52:16;;;;;;;0.50;0.47;;;;;;;;;;5028065;28;20046;-72
2022/09/12 12:54:53;;;;;;;0.77;0.40;;;;;;;;;;5026259;28;20049;-72
2022/09/12 12:57:40;;;;;;;0.60;0.50;;;;;;;;;;5026412;28;20382;-72
2022/09/12 13:00:26;;;;;;;1.10;0.50;;;;;;;;;;5025729;28;20056;-72
2022/09/12 13:02:58;;;;;;;0.70;0.47;;;;;;;;;;5022922;28;20146;-71
2022/09/12 13:05:28;;;;;;;0.40;0.40;;;;;;;;;;5021595;28;20144;-72
2022/09/12 13:07:59;;;;;;;0.20;0.20;;;;;;;;;;5029976;28;20045;-71
2022/09/12 13:10:29;;;;;;;0.40;0.40;;;;;;;;;;5027078;28;20693;-72
2022/09/12 13:13:00;;;;;;;0.47;0.43;;;;;;;;;;5025386;28;20041;-72
2022/09/12 13:15:43;;;;;;;0.50;0.50;;;;;;;;;;5020480;28;20125;-73
2022/09/12 13:18:14;;;;;;;1.25;0.50;;;;;;;;;;5020279;28;20045;-72
2022/09/12 13:20:48;;;;;;;1.40;0.50;;;;;;;;;;5022743;28;21056;-72
2022/09/12 13:23:26;;;;;;;1.08;0.70;;;;;;;;;;5024335;28;20457;-72
2022/09/12 13:25:55;;;;;;;0.40;0.40;;;;;;;;;;5027404;28;20046;-72
2022/09/12 13:28:25;;;;;;;0.68;0.50;;;;;;;;;;5024871;28;20050;-72
2022/09/12 13:30:58;;;;;;;0.77;0.50;;;;;;;;;;5023178;28;20412;-71
2022/09/12 13:33:30;;;;;;;0.55;0.50;;;;;;;;;;5028796;28;20132;-71
2022/09/12 13:36:15;;;;;;;0.22;0.22;;;;;;;;;;5026348;28;20049;-72
2022/09/12 13:38:50;;;;;;;0.30;0.30;;;;;;;;;;5018390;28;20049;-72
2022/09/12 13:41:24;;;;;;;0.47;0.40;;;;;;;;;;5020694;28;20053;-72
2022/09/12 13:43:52;;;;;;;0.85;0.43;;;;;;;;;;5023571;28;20042;-72
2022/09/12 13:46:25;;;;;;;0.73;0.50;;;;;;;;;;5026901;28;20072;-71
2022/09/12 13:48:54;;;;;;;0.68;0.50;;;;;;;;;;5019857;28;20083;-72
2022/09/12 13:51:25;;;;;;;0.80;0.55;;;;;;;;;;5024936;28;20140;-72
2022/09/12 13:53:57;;;;;;;0.98;0.70;;;;;;;;;;5020699;28;20056;-72
2022/09/12 13:56:25;;;;;;;0.75;0.55;;;;;;;;;;5027075;28;20157;-72
2022/09/12 13:58:55;;;;;;;0.80;0.30;;;;;;;;;;5022744;28;20046;-72
2022/09/12 14:01:24;;;;;;;2.05;0.40;;;;;;;;;;5028108;28;20136;-71
2022/09/12 14:06:45;;;;;;;0.20;0.20;;;;;;;;;;5016447;28;20068;-73
2022/09/12 14:09:16;;;;;;;0.55;0.35;;;;;;;;;;5023454;28;20049;-72
2022/09/12 14:11:50;;;;;;;0.57;0.40;;;;;;;;;;5027223;28;20049;-72
2022/09/12 14:14:21;;;;;;;0.35;0.30;;;;;;;;;;5027965;28;20398;-72
2022/09/12 14:16:52;;;;;;;0.88;0.43;;;;;;;;;;5023650;28;20050;-72
2022/09/12 14:19:22;;;;;;;0.40;0.40;;;;;;;;;;5025240;28;20493;-72
2022/09/12 14:21:51;;;;;;;0.95;0.43;;;;;;;;;;5032837;28;20394;-71
2022/09/12 14:24:22;;;;;;;0.57;0.45;;;;;;;;;;5026310;28;20062;-72
2022/09/12 14:26:51;;;;;;;0.28;0.22;;;;;;;;;;5022658;28;20052;-72
2022/09/12 14:29:21;;;;;;;0.50;0.50;;;;;;;;;;5026771;28;20477;-72
2022/09/12 14:32:00;;;;;;;0.68;0.57;;;;;;;;;;5019703;28;20047;-72
2022/09/12 14:34:29;;;;;;;0.65;0.63;;;;;;;;;;5027587;28;20045;-72
2022/09/12 14:36:58;;;;;;;0.90;0.60;;;;;;;;;;5026439;28;20771;-72
2022/09/12 14:39:30;;;;;;;0.40;0.40;;;;;;;;;;5022452;28;20528;-72
2022/09/12 14:42:03;;;;;;;0.50;0.40;;;;;;;;;;5028221;28;20049;-71
2022/09/12 14:44:33;;;;;;;0.25;0.25;;;;;;;;;;5022915;28;20042;-73
2022/09/12 14:47:11;;;;;;;0.90;0.47;;;;;;;;;;5024821;28;20632;-72
2022/09/12 14:49:40;;;;;;;0.73;0.35;;;;;;;;;;5025640;28;20157;-72
2022/09/12 14:52:17;;;;;;;1.02;0.50;;;;;;;;;;5026617;28;20486;-72
2022/09/12 14:54:55;;;;;;;0.47;0.47;;;;;;;;;;5025089;28;20084;-74
2022/09/12 14:57:35;;;;;;;0.80;0.60;;;;;;;;;;5019485;28;20137;-70
2022/09/12 15:00:21;;;;;;;0.65;0.50;;;;;;;;;;5025858;28;20405;-75
2022/09/12 15:02:50;;;;;;;0.98;0.65;;;;;;;;;;5018182;28;20058;-72
2022/09/12 15:05:20;;;;;;;0.50;0.30;;;;;;;;;;5024583;28;20417;-73
2022/09/12 15:07:53;;;;;;;1.40;0.93;;;;;;;;;;5043628;28;20130;-73
2022/09/12 15:10:25;;;;;;;0.73;0.50;;;;;;;;;;5044983;28;20492;-72
2022/09/12 15:13:06;;;;;;;0.20;0.20;;;;;;;;;;5042623;28;20477;-73